Time;durP1;ratioP1;P1;durP2;ratioP2;P2;SDS_P1;SDS_P2;PMS_P1;PMS_P2;Temp;Humidity;BMP_temperature;BMP_pressure;BME280_temperature;BME280_humidity;BME280_pressure;Samples;Min_cycle;Max_cycle;Signal;HPM_P1;HPM_P2
2023/12/20 00:01:05;;;;;;;4.63;2.13;;;8.30;99.90;;;8.18;100.00;100929.50;5182631;28;20053;-51
2023/12/20 00:03:37;;;;;;;4.47;2.40;;;8.30;99.90;;;8.17;100.00;100933.81;5180999;28;20056;-51
2023/12/20 00:06:10;;;;;;;4.63;2.67;;;8.30;99.90;;;8.16;100.00;100930.31;5182663;28;20053;-50
2023/12/20 00:08:43;;;;;;;5.93;2.67;;;8.30;99.90;;;8.16;100.00;100927.72;5181674;28;20052;-50
2023/12/20 00:11:16;;;;;;;4.50;2.22;;;8.20;99.90;;;8.17;100.00;100926.00;5203522;28;20061;-51
2023/12/20 00:13:50;;;;;;;3.33;1.98;;;8.30;99.90;;;8.18;100.00;100927.78;5202486;28;20053;-51
2023/12/20 00:16:22;;;;;;;4.78;2.35;;;8.30;99.90;;;8.18;100.00;100927.78;5184072;28;20477;-51
2023/12/20 00:18:54;;;;;;;5.40;2.53;;;8.30;99.90;;;8.18;100.00;100921.69;5198647;28;20593;-51
2023/12/20 00:21:27;;;;;;;4.25;2.20;;;8.30;99.90;;;8.19;100.00;100939.06;5196131;28;20040;-50
2023/12/20 00:24:02;;;;;;;5.45;2.80;;;8.30;99.90;;;8.20;100.00;100931.31;5183059;28;20041;-52
2023/12/20 00:26:34;;;;;;;7.43;3.47;;;8.30;99.90;;;8.20;100.00;100923.53;5175156;28;20053;-52
2023/12/20 00:29:08;;;;;;;6.22;2.72;;;8.30;99.90;;;8.20;100.00;100920.94;5196358;28;20069;-51
2023/12/20 00:31:40;;;;;;;8.40;3.30;;;8.30;99.90;;;8.20;100.00;100923.53;5182517;28;20049;-51
2023/12/20 00:34:13;;;;;;;7.18;3.20;;;8.30;99.90;;;8.20;100.00;100926.13;5183849;28;20053;-52
2023/12/20 00:36:45;;;;;;;7.25;3.20;;;8.30;99.90;;;8.21;100.00;100927.03;5183568;28;20061;-51
2023/12/20 00:39:18;;;;;;;7.80;3.42;;;8.30;99.90;;;8.22;100.00;100923.63;5206908;28;20049;-50
2023/12/20 00:41:50;;;;;;;8.43;3.45;;;8.30;99.90;;;8.21;100.00;100924.44;5183368;28;20433;-51
2023/12/20 00:44:24;;;;;;;6.53;3.17;;;8.30;99.90;;;8.22;100.00;100927.13;5200500;28;20053;-52
2023/12/20 00:46:56;;;;;;;7.25;3.33;;;8.30;99.90;;;8.22;100.00;100927.13;5217104;28;20148;-50
2023/12/20 00:49:29;;;;;;;8.00;3.47;;;8.30;99.90;;;8.22;100.00;100940.09;5183470;28;20045;-51
2023/12/20 00:52:01;;;;;;;10.27;4.25;;;8.30;99.90;;;8.21;100.00;100938.28;5181865;28;20072;-51
2023/12/20 00:54:34;;;;;;;10.63;4.25;;;8.30;99.90;;;8.20;100.00;100936.53;5186012;28;20049;-50
2023/12/20 00:57:06;;;;;;;10.00;4.75;;;8.30;99.90;;;8.18;100.00;100937.28;5196557;28;20042;-50
2023/12/20 00:59:40;;;;;;;9.57;4.50;;;8.30;99.90;;;8.14;100.00;100936.22;5198823;28;20053;-51
2023/12/20 01:02:12;;;;;;;8.57;4.20;;;8.30;99.90;;;8.09;100.00;100938.63;5183363;28;20726;-51
2023/12/20 01:04:45;;;;;;;7.53;3.80;;;8.30;99.90;;;8.07;100.00;100949.75;5182733;28;20049;-52
2023/12/20 01:07:17;;;;;;;8.15;3.78;;;8.20;99.90;;;8.05;100.00;100946.19;5182739;28;20154;-52
2023/12/20 01:09:50;;;;;;;8.65;3.78;;;8.20;99.90;;;8.06;100.00;100950.56;5197475;28;20049;-51
2023/12/20 01:12:22;;;;;;;7.43;3.42;;;8.20;99.90;;;8.05;100.00;100959.19;5185105;28;20049;-51
2023/12/20 01:14:56;;;;;;;8.90;4.13;;;8.20;99.90;;;8.03;100.00;100955.63;5208513;28;20421;-52
2023/12/20 01:17:31;;;;;;;9.48;4.15;;;8.20;99.90;;;8.05;100.00;100964.38;5182288;28;20045;-50
2023/12/20 01:20:05;;;;;;;8.63;4.15;;;8.20;99.90;;;8.03;100.00;100961.72;5183613;28;20037;-50
2023/12/20 01:22:38;;;;;;;7.68;3.50;;;8.20;99.90;;;8.02;100.00;100956.41;5185443;28;20061;-50
2023/12/20 01:25:10;;;;;;;8.77;3.78;;;8.20;99.90;;;8.02;100.00;100961.63;5182999;28;20420;-52
2023/12/20 01:27:43;;;;;;;8.55;3.80;;;8.20;99.90;;;7.99;100.00;100961.50;5186345;28;20622;-52
2023/12/20 01:30:16;;;;;;;8.20;3.67;;;8.10;99.90;;;7.97;100.00;100960.53;5183432;28;20045;-52
2023/12/20 01:32:49;;;;;;;8.13;3.45;;;8.10;99.90;;;7.95;100.00;100957.84;5181908;28;20049;-51
2023/12/20 01:35:21;;;;;;;9.25;4.20;;;8.10;99.90;;;7.92;100.00;100962.91;5182360;28;20061;-51
2023/12/20 01:37:56;;;;;;;7.53;3.63;;;8.10;99.90;;;7.87;100.00;100965.25;5199269;28;20056;-51
2023/12/20 01:40:29;;;;;;;6.57;3.20;;;8.00;99.90;;;7.83;100.00;100958.16;5182730;28;20681;-50
2023/12/20 01:43:02;;;;;;;5.90;3.03;;;8.00;99.90;;;7.81;100.00;100979.66;5210661;28;20052;-50
2023/12/20 01:45:35;;;;;;;7.70;2.97;;;8.00;99.90;;;7.78;100.00;100988.19;5186509;28;20052;-50
2023/12/20 01:48:09;;;;;;;7.40;3.20;;;7.90;99.90;;;7.78;100.00;100982.13;5182557;28;20041;-52
2023/12/20 01:50:43;;;;;;;6.20;2.75;;;7.90;99.90;;;7.77;100.00;100978.63;5179496;28;20053;-51
2023/12/20 01:53:16;;;;;;;7.13;3.30;;;7.90;99.90;;;7.78;100.00;100977.81;5184275;28;20045;-52
2023/12/20 01:55:50;;;;;;;9.52;4.00;;;7.90;99.90;;;7.78;100.00;100988.19;5205586;28;20052;-51
2023/12/20 01:58:24;;;;;;;6.70;3.40;;;7.90;99.90;;;7.75;100.00;100988.03;5177184;28;20053;-51
2023/12/20 02:00:59;;;;;;;11.48;4.13;;;7.90;99.90;;;7.72;100.00;100976.63;5207645;28;20049;-51
2023/12/20 02:03:31;;;;;;;9.00;4.25;;;7.90;99.90;;;7.68;100.00;100995.44;5183692;28;20053;-51
2023/12/20 02:06:04;;;;;;;10.90;4.47;;;7.80;99.90;;;7.66;100.00;101002.25;5207763;28;20042;-50
2023/12/20 02:08:40;;;;;;;14.70;5.10;;;7.80;99.90;;;7.59;100.00;100985.50;5184726;28;20721;-52
2023/12/20 02:11:12;;;;;;;10.98;4.65;;;7.80;99.90;;;7.52;100.00;100988.59;5182636;28;20049;-50
2023/12/20 02:13:45;;;;;;;10.95;4.78;;;7.70;99.90;;;7.44;100.00;100996.00;5181683;28;20080;-50
2023/12/20 02:16:19;;;;;;;12.55;5.10;;;7.70;99.90;;;7.44;100.00;101003.78;5183435;28;20041;-51
2023/12/20 02:18:51;;;;;;;13.45;5.57;;;7.60;99.90;;;7.39;100.00;101002.66;5197003;28;20038;-52
2023/12/20 02:21:34;;;;;;;10.63;4.57;;;7.60;99.90;;;7.35;100.00;101001.59;5180543;28;20049;-51
2023/12/20 02:24:07;;;;;;;8.95;4.20;;;7.60;99.90;;;7.32;100.00;101010.94;5205797;28;20527;-51
2023/12/20 02:26:40;;;;;;;8.77;3.85;;;7.50;99.90;;;7.22;100.00;101009.56;5207504;28;20046;-50
2023/12/20 02:29:12;;;;;;;10.93;3.25;;;7.40;99.90;;;7.17;100.00;101004.94;5207426;28;20045;-51
2023/12/20 02:31:45;;;;;;;9.20;3.58;;;7.40;99.90;;;7.16;100.00;101016.13;5180241;28;20053;-50
2023/12/20 02:34:17;;;;;;;13.07;3.47;;;7.40;99.90;;;7.10;100.00;101027.06;5205689;28;20058;-51
2023/12/20 02:36:51;;;;;;;6.72;3.28;;;7.30;99.90;;;7.04;100.00;101026.75;5209208;28;20054;-50
2023/12/20 02:39:23;;;;;;;9.13;3.53;;;7.30;99.90;;;6.98;100.00;101029.06;5182865;28;20410;-52
2023/12/20 02:41:56;;;;;;;10.68;3.45;;;7.20;99.90;;;6.91;100.00;101032.09;5181437;28;20080;-52
2023/12/20 02:44:28;;;;;;;8.38;3.05;;;7.20;99.90;;;6.87;100.00;101036.25;5212253;28;20069;-52
2023/12/20 02:47:01;;;;;;;9.48;3.28;;;7.10;99.90;;;6.82;100.00;101045.47;5202243;28;20049;-51
2023/12/20 02:49:33;;;;;;;9.82;3.08;;;7.10;99.90;;;6.80;100.00;101042.78;5184069;28;20540;-51
2023/12/20 02:52:10;;;;;;;11.15;3.03;;;7.00;99.90;;;6.78;100.00;101041.84;5184989;28;20077;-50
2023/12/20 02:54:42;;;;;;;8.48;2.53;;;7.00;99.90;;;6.73;100.00;101053.66;5182601;28;20053;-51
2023/12/20 02:57:15;;;;;;;5.18;2.72;;;6.90;99.90;;;6.70;100.00;101053.47;5188023;28;20112;-52
2023/12/20 02:59:47;;;;;;;7.35;2.30;;;6.90;99.90;;;6.66;100.00;101045.47;5190150;28;20050;-50
2023/12/20 03:02:20;;;;;;;6.07;2.70;;;6.90;99.90;;;6.63;100.00;101050.47;5185834;28;20053;-51
2023/12/20 03:04:52;;;;;;;6.57;1.98;;;6.80;99.90;;;6.59;100.00;101052.00;5186272;28;20053;-50
2023/12/20 03:07:26;;;;;;;9.73;2.42;;;6.80;99.90;;;6.57;100.00;101056.19;5189556;28;20397;-50
2023/12/20 03:09:58;;;;;;;8.00;1.88;;;6.80;99.90;;;6.55;100.00;101065.59;5202481;28;20535;-50
2023/12/20 03:12:30;;;;;;;7.13;1.80;;;6.80;99.90;;;6.56;100.00;101058.69;5189633;28;20386;-50
2023/12/20 03:15:03;;;;;;;7.85;2.00;;;6.80;99.90;;;6.57;100.00;101053.59;5214147;28;20049;-51
2023/12/20 03:17:35;;;;;;;5.25;1.90;;;6.80;99.90;;;6.58;100.00;101049.31;5214035;28;20057;-51
2023/12/20 03:20:09;;;;;;;5.78;1.67;;;6.80;99.90;;;6.62;100.00;101065.09;5185641;28;20049;-50
2023/12/20 03:22:43;;;;;;;7.28;1.95;;;6.80;99.90;;;6.68;100.00;101059.38;5213967;28;20057;-50
2023/12/20 03:25:16;;;;;;;2.40;1.33;;;6.90;99.90;;;6.71;100.00;101057.81;5194027;28;20054;-49
2023/12/20 03:27:48;;;;;;;4.53;1.55;;;6.90;99.90;;;6.74;100.00;101060.59;5202649;28;20057;-50
2023/12/20 03:30:21;;;;;;;5.30;1.70;;;6.90;99.90;;;6.77;100.00;101047.78;5189245;28;20049;-50
2023/12/20 03:32:53;;;;;;;4.95;1.70;;;6.90;99.90;;;6.80;100.00;101047.97;5214008;28;20412;-50
2023/12/20 03:35:25;;;;;;;6.82;1.55;;;7.00;99.90;;;6.85;100.00;101045.66;5185073;28;20572;-49
2023/12/20 03:38:00;;;;;;;6.55;1.90;;;7.00;99.90;;;6.89;100.00;101044.09;5202234;28;20096;-50
2023/12/20 03:40:32;;;;;;;7.28;2.67;;;7.00;99.90;;;6.90;100.00;101051.06;5212649;28;20046;-51
2023/12/20 03:43:05;;;;;;;5.90;1.85;;;7.10;99.90;;;6.92;100.00;101045.16;5185616;28;20048;-51
2023/12/20 03:45:37;;;;;;;5.60;1.75;;;7.00;99.90;;;6.93;100.00;101051.22;5185036;28;20057;-50
2023/12/20 03:48:10;;;;;;;6.28;2.03;;;7.10;99.90;;;6.97;100.00;101053.16;5185995;28;20048;-51
2023/12/20 03:50:42;;;;;;;4.38;1.67;;;7.10;99.90;;;7.00;100.00;101050.75;5184760;28;20050;-50
2023/12/20 03:53:16;;;;;;;7.30;2.72;;;7.10;99.90;;;7.02;100.00;101051.72;5180491;28;20045;-50
2023/12/20 03:55:48;;;;;;;6.43;1.67;;;7.20;99.90;;;7.03;100.00;101053.47;5212936;28;20460;-51
2023/12/20 03:58:21;;;;;;;3.30;1.80;;;7.20;99.90;;;7.03;100.00;101046.59;5185066;28;20516;-50
2023/12/20 04:00:53;;;;;;;4.63;1.65;;;7.20;99.90;;;7.05;100.00;101055.38;5201552;28;20053;-51
2023/12/20 04:03:25;;;;;;;7.70;1.90;;;7.20;99.90;;;7.05;100.00;101052.78;5185414;28;20061;-51
2023/12/20 04:05:58;;;;;;;7.53;2.25;;;7.20;99.90;;;7.07;100.00;101051.16;5213882;28;20058;-51
2023/12/20 04:08:35;;;;;;;5.30;1.95;;;7.20;99.90;;;7.10;100.00;101054.69;5188676;28;20049;-50
2023/12/20 04:11:07;;;;;;;4.72;1.92;;;7.20;99.90;;;7.12;100.00;101054.00;5185274;28;20041;-51
2023/12/20 04:13:39;;;;;;;14.00;2.10;;;7.20;99.90;;;7.12;100.00;101051.41;5184400;28;20053;-51
2023/12/20 04:16:12;;;;;;;4.20;2.10;;;7.20;99.90;;;7.11;100.00;101054.81;5202805;28;20048;-50
2023/12/20 04:18:44;;;;;;;6.53;2.00;;;7.20;99.90;;;7.11;100.00;101052.22;5185010;28;20050;-50
2023/12/20 04:21:16;;;;;;;8.85;2.78;;;7.20;99.90;;;7.13;100.00;101055.75;5205252;28;20042;-50
2023/12/20 04:23:50;;;;;;;8.27;2.30;;;7.20;99.90;;;7.11;100.00;101054.81;5208998;28;20508;-50
2023/12/20 04:26:22;;;;;;;5.60;2.05;;;7.20;99.90;;;7.11;100.00;101051.28;5186945;28;20049;-51
2023/12/20 04:28:55;;;;;;;5.32;2.03;;;7.20;99.90;;;7.12;100.00;101048.81;5201323;28;20057;-51
2023/12/20 04:31:27;;;;;;;8.35;1.95;;;7.20;99.90;;;7.12;100.00;101047.91;5184467;28;20398;-50
2023/12/20 04:33:59;;;;;;;7.20;2.33;;;7.20;99.90;;;7.13;100.00;101049.69;5213270;28;20111;-51
2023/12/20 04:36:32;;;;;;;6.38;2.22;;;7.20;99.90;;;7.09;100.00;101051.22;5184632;28;20053;-50
2023/12/20 04:39:06;;;;;;;6.65;2.05;;;7.20;99.90;;;7.11;100.00;101054.81;5184074;28;20073;-50
2023/12/20 04:41:39;;;;;;;8.80;2.65;;;7.30;99.90;;;7.13;100.00;101050.59;5181914;28;20054;-50
2023/12/20 04:44:11;;;;;;;8.40;2.80;;;7.20;99.90;;;7.13;100.00;101060.94;5208642;28;20046;-50
2023/12/20 04:46:44;;;;;;;9.30;2.65;;;7.30;99.90;;;7.13;100.00;101065.25;5184194;28;20421;-50
2023/12/20 04:49:16;;;;;;;4.68;2.08;;;7.30;99.90;;;7.13;100.00;101058.38;5202453;28;20509;-51
2023/12/20 04:51:49;;;;;;;6.03;1.90;;;7.30;99.90;;;7.12;100.00;101069.53;5201588;28;20513;-50
2023/12/20 04:54:26;;;;;;;8.75;2.40;;;7.30;99.90;;;7.10;100.00;101065.97;5183945;28;20115;-50
2023/12/20 04:56:58;;;;;;;7.30;2.53;;;7.20;99.90;;;7.08;100.00;101067.59;5209506;28;20058;-50
2023/12/20 04:59:31;;;;;;;9.25;2.83;;;7.20;99.90;;;7.04;100.00;101057.84;5184525;28;20053;-51
2023/12/20 05:02:03;;;;;;;10.13;2.72;;;7.20;99.90;;;6.99;100.00;101048.97;5184139;28;20049;-51
2023/12/20 05:04:36;;;;;;;8.23;2.72;;;7.20;99.90;;;6.96;100.00;101051.38;5183680;28;20049;-50
2023/12/20 05:07:08;;;;;;;9.73;2.90;;;7.10;99.90;;;6.90;100.00;101056.22;5183348;28;20087;-50
2023/12/20 05:09:42;;;;;;;12.18;3.00;;;7.10;99.90;;;6.85;100.00;101057.72;5183806;28;20065;-51
2023/12/20 05:12:15;;;;;;;8.52;2.47;;;7.10;99.90;;;6.79;100.00;101066.03;5183581;28;20460;-51
2023/12/20 05:14:47;;;;;;;10.18;2.88;;;7.00;99.90;;;6.77;100.00;101058.16;5183423;28;20041;-50
2023/12/20 05:17:21;;;;;;;9.88;3.35;;;7.00;99.90;;;6.77;100.00;101070.22;5182159;28;20060;-51
2023/12/20 05:19:53;;;;;;;8.75;3.03;;;7.00;99.90;;;6.71;100.00;101055.25;5198251;28;20140;-52
2023/12/20 05:22:29;;;;;;;10.13;2.75;;;6.90;99.90;;;6.71;100.00;101049.16;5183873;28;20517;-51
2023/12/20 05:25:04;;;;;;;5.72;2.40;;;6.90;99.90;;;6.68;100.00;101049.00;5183905;28;20045;-50
2023/12/20 05:27:36;;;;;;;;;;;6.90;99.90;;;6.67;100.00;101058.50;5184532;28;20089;-51
2023/12/20 05:30:10;;;;;;;5.65;2.55;;;6.90;99.90;;;6.66;100.00;101066.19;5183343;28;19932;-49
2023/12/20 05:32:42;;;;;;;11.32;3.22;;;6.90;99.90;;;6.63;100.00;101066.00;5183670;28;20411;-51
2023/12/20 05:35:15;;;;;;;9.48;3.10;;;6.90;99.90;;;6.63;100.00;101069.47;5183473;28;20042;-51
2023/12/20 05:37:47;;;;;;;10.30;2.95;;;6.80;99.90;;;6.64;100.00;101062.59;5183457;28;20056;-51
2023/12/20 05:40:21;;;;;;;11.35;3.40;;;6.80;99.90;;;6.66;100.00;101056.72;5200675;28;20467;-50
2023/12/20 05:42:53;;;;;;;13.10;3.13;;;6.80;99.90;;;6.68;100.00;101059.38;5181470;28;20057;-51
2023/12/20 05:45:26;;;;;;;8.70;3.20;;;6.90;99.90;;;6.67;100.00;101068.84;5188181;28;20057;-51
2023/12/20 05:47:58;;;;;;;11.68;3.50;;;6.90;99.90;;;6.69;100.00;101077.59;5217220;28;20060;-50
2023/12/20 05:50:30;;;;;;;11.70;3.38;;;6.90;99.90;;;6.69;100.00;101075.00;5187151;28;20071;-51
2023/12/20 05:53:03;;;;;;;12.20;3.67;;;6.90;99.90;;;6.71;100.00;101072.47;5197295;28;20053;-50
2023/12/20 05:55:37;;;;;;;8.13;3.20;;;6.90;99.90;;;6.72;100.00;101080.38;5206510;28;20069;-51
2023/12/20 05:58:09;;;;;;;7.15;2.80;;;6.90;99.90;;;6.74;100.00;101065.78;5183798;28;20057;-50
2023/12/20 06:00:41;;;;;;;9.18;2.70;;;6.90;99.90;;;6.74;100.00;101067.47;5182966;28;20045;-50
2023/12/20 06:03:14;;;;;;;8.80;3.17;;;6.90;99.90;;;6.77;100.00;101063.34;5183073;28;20037;-49
2023/12/20 06:05:46;;;;;;;16.00;3.78;;;7.00;99.90;;;6.79;100.00;101053.09;5182531;28;20049;-51
2023/12/20 06:08:19;;;;;;;10.23;3.08;;;7.00;99.90;;;6.77;100.00;101067.63;5208594;28;20053;-49
2023/12/20 06:10:52;;;;;;;7.78;2.50;;;7.00;99.90;;;6.79;100.00;101074.69;5196898;28;20420;-50
2023/12/20 06:13:25;;;;;;;10.80;2.95;;;7.00;99.90;;;6.80;100.00;101071.31;5180422;28;20045;-50
2023/12/20 06:15:57;;;;;;;10.80;3.33;;;7.00;99.90;;;6.80;100.00;101073.00;5183302;28;20065;-51
2023/12/20 06:18:30;;;;;;;9.70;2.95;;;7.00;99.90;;;6.82;100.00;101076.56;5184255;28;20057;-50
2023/12/20 06:21:02;;;;;;;11.27;3.33;;;7.00;99.90;;;6.85;100.00;101073.25;5203132;28;20033;-51
2023/12/20 06:23:34;;;;;;;9.25;3.42;;;7.00;99.90;;;6.82;100.00;101070.50;5186370;28;20125;-50
2023/12/20 06:26:08;;;;;;;9.73;3.20;;;7.00;99.90;;;6.84;100.00;101068.84;5185408;28;20056;-50
2023/12/20 06:28:40;;;;;;;8.13;3.13;;;7.10;99.90;;;6.85;100.00;101068.97;5186900;28;20436;-50
2023/12/20 06:31:13;;;;;;;9.68;2.70;;;7.00;99.90;;;6.86;100.00;101064.69;5216701;28;20401;-50
2023/12/20 06:33:45;;;;;;;9.77;3.22;;;7.10;99.90;;;6.89;100.00;101076.06;5190330;28;20042;-50
2023/12/20 06:36:18;;;;;;;8.07;2.80;;;7.10;99.90;;;6.92;100.00;101077.97;5187011;28;20148;-49
2023/12/20 06:38:53;;;;;;;11.50;3.38;;;7.10;99.90;;;6.92;100.00;101081.44;5212904;28;20061;-49
2023/12/20 06:41:27;;;;;;;13.10;3.78;;;7.10;99.90;;;6.92;100.00;101075.38;5212996;28;20046;-51
2023/12/20 06:43:59;;;;;;;9.27;2.88;;;7.10;99.90;;;6.94;100.00;101085.00;5202346;28;20053;-50
2023/12/20 06:46:32;;;;;;;7.85;3.00;;;7.10;99.90;;;6.96;100.00;101085.97;5190410;28;20535;-50
2023/12/20 06:49:04;;;;;;;10.05;3.08;;;7.10;99.90;;;6.98;100.00;101086.06;5188850;28;20512;-50
2023/12/20 06:51:36;;;;;;;6.47;2.78;;;7.10;99.90;;;7.00;100.00;101080.16;5203429;28;20120;-51
2023/12/20 06:54:09;;;;;;;6.45;2.78;;;7.20;99.90;;;7.02;100.00;101080.22;5186379;28;20046;-50
2023/12/20 06:56:43;;;;;;;5.05;2.55;;;7.20;99.90;;;7.03;100.00;101079.41;5203032;28;20393;-52
2023/12/20 06:59:15;;;;;;;10.82;2.72;;;7.20;99.90;;;7.05;100.00;101072.63;5219887;28;20056;-50
2023/12/20 07:01:50;;;;;;;10.32;2.72;;;7.20;99.90;;;7.04;100.00;101066.56;5185783;28;20053;-51
2023/12/20 07:04:22;;;;;;;7.65;3.05;;;7.20;99.90;;;7.04;100.00;101070.81;5185528;28;20046;-51
2023/12/20 07:06:57;;;;;;;11.13;2.53;;;7.20;99.90;;;7.07;100.00;101077.06;5199960;28;20102;-50
2023/12/20 07:09:29;;;;;;;8.23;2.58;;;7.20;99.90;;;7.10;100.00;101086.69;5185941;28;20053;-50
2023/12/20 07:12:04;;;;;;;10.55;3.00;;;7.30;99.90;;;7.11;100.00;101091.09;5202537;28;20041;-50
2023/12/20 07:14:36;;;;;;;5.95;2.42;;;7.30;99.90;;;7.13;100.00;101096.34;5189534;28;20049;-51
2023/12/20 07:17:11;;;;;;;8.23;2.65;;;7.30;99.90;;;7.13;100.00;101092.06;5185905;28;20057;-50
2023/12/20 07:19:43;;;;;;;11.00;2.92;;;7.30;99.90;;;7.16;100.00;101099.09;5185668;28;20053;-50
2023/12/20 07:22:16;;;;;;;7.65;2.15;;;7.30;99.90;;;7.16;100.00;101093.91;5185601;28;20064;-50
2023/12/20 07:24:49;;;;;;;10.90;3.10;;;7.30;99.90;;;7.17;100.00;101094.03;5214490;28;20042;-51
2023/12/20 07:27:23;;;;;;;9.48;2.47;;;7.30;99.90;;;7.14;100.00;101109.41;5191191;28;20415;-50
2023/12/20 07:29:55;;;;;;;10.05;2.28;;;7.30;99.90;;;7.16;100.00;101106.88;5201279;28;20065;-50
2023/12/20 07:32:28;;;;;;;7.15;2.55;;;7.30;99.90;;;7.16;100.00;101091.31;5182453;28;20057;-50
2023/12/20 07:35:00;;;;;;;7.38;2.70;;;7.30;99.90;;;7.15;100.00;101097.31;5202113;28;20060;-51
2023/12/20 07:37:32;;;;;;;9.23;2.70;;;7.30;99.90;;;7.17;100.00;101104.38;5185579;28;20049;-49
2023/12/20 07:40:06;;;;;;;6.95;2.08;;;7.30;99.90;;;7.18;100.00;101100.97;5182736;28;20042;-51
2023/12/20 07:42:40;;;;;;;10.13;2.83;;;7.30;99.90;;;7.20;100.00;101099.34;5208854;28;20061;-50
2023/12/20 07:45:12;;;;;;;9.77;2.28;;;7.40;99.90;;;7.17;100.00;101094.03;5185361;28;20057;-49
2023/12/20 07:47:45;;;;;;;7.65;2.03;;;7.30;99.90;;;7.18;100.00;101090.63;5210649;28;20460;-50
2023/12/20 07:50:17;;;;;;;7.95;2.35;;;7.30;99.90;;;7.21;100.00;101095.06;5185819;28;20041;-51
2023/12/20 07:52:53;;;;;;;5.97;2.10;;;7.40;99.90;;;7.22;100.00;101097.72;5200887;28;20046;-50
2023/12/20 07:55:25;;;;;;;10.43;2.30;;;7.40;99.90;;;7.23;100.00;101099.50;5184647;28;20073;-50
2023/12/20 07:58:00;;;;;;;5.45;2.10;;;7.40;99.90;;;7.23;100.00;101102.09;5215261;28;20049;-50
2023/12/20 08:00:32;;;;;;;8.35;2.10;;;7.40;99.90;;;7.25;100.00;101104.78;5185114;28;20416;-51
2023/12/20 08:03:05;;;;;;;6.43;2.15;;;7.40;99.90;;;7.25;100.00;101105.69;5215302;28;20057;-49
2023/12/20 08:05:40;;;;;;;7.60;1.88;;;7.40;99.90;;;7.26;100.00;101103.97;5188758;28;20068;-50
2023/12/20 08:08:12;;;;;;;6.22;1.77;;;7.40;99.90;;;7.30;100.00;101100.72;5201643;28;20049;-51
2023/12/20 08:10:47;;;;;;;8.82;2.47;;;7.40;99.90;;;7.31;100.00;101098.22;5184491;28;20042;-50
2023/12/20 08:13:24;;;;;;;8.80;2.13;;;7.40;99.90;;;7.32;100.00;101112.97;5185227;28;20512;-50
2023/12/20 08:15:57;;;;;;;6.85;2.40;;;7.50;99.90;;;7.33;100.00;101112.16;5200208;28;20045;-50
2023/12/20 08:18:29;;;;;;;9.05;1.98;;;7.50;99.90;;;7.32;100.00;101097.41;5181058;28;20059;-49
2023/12/20 08:21:02;;;;;;;6.07;2.08;;;7.50;99.90;;;7.33;100.00;101106.97;5214909;28;20046;-49
2023/12/20 08:23:34;;;;;;;7.63;2.13;;;7.50;99.90;;;7.35;100.00;101110.53;5184696;28;20045;-50
2023/12/20 08:26:07;;;;;;;7.10;2.05;;;7.50;99.90;;;7.35;100.00;101113.13;5184555;28;20045;-51
2023/12/20 08:28:41;;;;;;;9.43;2.60;;;7.50;99.90;;;7.37;100.00;101101.94;5183590;28;20061;-50
2023/12/20 08:31:16;;;;;;;9.82;2.90;;;7.50;99.90;;;7.39;100.00;101098.63;5183599;28;20049;-48
2023/12/20 08:33:49;;;;;;;;;;;7.50;99.90;;;7.43;100.00;101110.91;5211871;28;20053;-51
2023/12/20 08:36:23;;;;;;;5.63;1.92;;;7.50;99.90;;;7.43;100.00;101103.13;5184574;28;19924;-51
2023/12/20 08:38:55;;;;;;;8.45;2.10;;;7.60;99.90;;;7.50;100.00;101104.38;5184759;28;20468;-47
2023/12/20 08:41:29;;;;;;;7.68;2.15;;;7.60;99.90;;;7.92;100.00;101099.59;5186850;28;20463;-49
2023/12/20 08:44:03;;;;;;;8.00;1.73;;;7.90;99.90;;;7.94;100.00;101104.03;5200297;28;20053;-48
2023/12/20 08:46:36;;;;;;;7.03;1.95;;;8.00;99.90;;;7.85;100.00;101095.78;5183859;28;20631;-51
2023/12/20 08:49:09;;;;;;;6.78;1.83;;;8.00;99.90;;;7.78;100.00;101104.97;5184148;28;20053;-50
2023/12/20 08:51:42;;;;;;;8.65;2.10;;;8.00;99.90;;;7.74;100.00;101110.81;5214536;28;20033;-50
2023/12/20 08:54:14;;;;;;;7.55;2.35;;;7.90;99.90;;;7.69;100.00;101116.56;5183882;28;20515;-51
2023/12/20 08:56:47;;;;;;;6.50;2.03;;;7.90;99.90;;;7.66;100.00;101113.84;5184498;28;20053;-50
2023/12/20 08:59:20;;;;;;;7.72;2.13;;;7.80;99.90;;;7.63;100.00;101114.56;5201588;28;20053;-53
2023/12/20 09:01:54;;;;;;;6.68;1.83;;;7.80;99.90;;;7.62;100.00;101110.16;5183750;28;20052;-51
2023/12/20 09:04:26;;;;;;;5.07;1.90;;;7.80;99.90;;;7.59;100.00;101108.31;5213515;28;20123;-50
2023/12/20 09:07:02;;;;;;;7.70;2.10;;;7.80;99.90;;;7.62;100.00;101105.88;5199435;28;20042;-51
2023/12/20 09:09:34;;;;;;;8.50;1.80;;;7.80;99.90;;;7.63;100.00;101112.00;5196630;28;20053;-51
2023/12/20 09:12:08;;;;;;;7.47;1.90;;;7.80;99.90;;;7.67;100.00;101124.28;5183869;28;20041;-50
2023/12/20 09:14:41;;;;;;;6.78;1.98;;;7.70;99.90;;;7.70;100.00;101113.19;5183816;28;20081;-50
2023/12/20 09:17:14;;;;;;;12.65;2.95;;;7.80;99.90;;;7.75;100.00;101122.97;5186391;28;20049;-49
2023/12/20 09:19:46;;;;;;;8.68;1.77;;;7.80;99.90;;;7.75;100.00;101124.66;5214045;28;20056;-49
2023/12/20 09:22:19;;;;;;;7.43;1.67;;;7.80;99.90;;;7.75;100.00;101122.97;5183491;28;20061;-50
2023/12/20 09:24:54;;;;;;;8.50;2.00;;;7.90;99.90;;;7.74;100.00;101115.13;5209444;28;20111;-48
2023/12/20 09:27:27;;;;;;;5.97;1.65;;;7.90;99.90;;;7.73;100.00;101114.22;5183514;28;20055;-52
2023/12/20 09:30:06;;;;;;;7.57;1.83;;;7.80;99.90;;;7.73;100.00;101109.03;5211497;28;20045;-51
2023/12/20 09:32:38;;;;;;;5.13;1.48;;;7.90;99.90;;;7.74;100.00;101100.44;5197282;28;20437;-50
2023/12/20 09:35:11;;;;;;;9.52;1.90;;;7.90;99.90;;;7.76;100.00;101109.22;5183386;28;20547;-50
2023/12/20 09:37:44;;;;;;;4.38;1.30;;;7.90;99.90;;;7.76;100.00;101101.41;5183151;28;20049;-49
2023/12/20 09:40:20;;;;;;;4.90;1.80;;;7.90;99.90;;;7.76;100.00;101104.00;5181723;28;20060;-49
2023/12/20 09:42:59;;;;;;;3.30;1.33;;;7.90;99.90;;;7.76;100.00;101104.00;5180359;28;20401;-51
2023/12/20 09:45:33;;;;;;;6.15;1.92;;;7.90;99.90;;;7.77;100.00;101105.78;5200441;28;20034;-51
2023/12/20 09:48:08;;;;;;;8.95;1.95;;;7.90;99.90;;;7.77;100.00;101110.97;5183353;28;20046;-50
2023/12/20 09:50:41;;;;;;;4.13;1.48;;;7.90;99.90;;;7.77;100.00;101102.31;5183726;28;20057;-50
2023/12/20 09:53:17;;;;;;;3.15;1.63;;;7.90;99.90;;;7.75;100.00;101091.81;5185536;28;20520;-50
2023/12/20 09:55:49;;;;;;;5.45;1.73;;;7.90;99.90;;;7.75;100.00;101094.41;5221065;28;20446;-49
2023/12/20 09:58:21;;;;;;;4.45;1.83;;;7.90;99.90;;;7.76;100.00;101096.22;5187359;28;20576;-49
2023/12/20 10:00:57;;;;;;;6.50;1.88;;;7.90;99.90;;;7.79;100.00;101104.16;5204263;28;20053;-50
2023/12/20 10:03:29;;;;;;;5.90;1.40;;;7.90;99.90;;;7.81;100.00;101099.91;5214785;28;20044;-49
2023/12/20 10:06:02;;;;;;;4.53;1.85;;;7.90;99.90;;;7.84;100.00;101097.50;5203717;28;20051;-51
2023/12/20 10:08:34;;;;;;;5.32;1.83;;;7.90;99.90;;;7.83;100.00;101094.84;5185868;28;20048;-50
2023/12/20 10:11:07;;;;;;;8.27;2.25;;;7.90;99.90;;;7.82;100.00;101091.34;5186019;28;20077;-51
2023/12/20 10:13:41;;;;;;;7.65;2.00;;;7.90;99.90;;;7.84;100.00;101092.31;5183990;28;20060;-50
2023/12/20 10:16:15;;;;;;;5.53;1.67;;;7.90;99.90;;;7.85;100.00;101091.50;5212739;28;20049;-50
2023/12/20 10:18:48;;;;;;;4.97;1.52;;;8.00;99.90;;;7.86;100.00;101088.06;5186214;28;20055;-49
2023/12/20 10:21:20;;;;;;;7.13;1.65;;;8.00;99.90;;;7.86;100.00;101089.78;5186809;28;20372;-49
2023/12/20 10:23:52;;;;;;;5.75;2.03;;;7.90;99.90;;;7.85;100.00;101088.00;5185597;28;20056;-50
2023/12/20 10:26:27;;;;;;;9.00;2.10;;;8.00;99.90;;;7.86;100.00;101082.88;5186562;28;20170;-49
2023/12/20 10:29:03;;;;;;;6.90;1.80;;;8.00;99.90;;;7.84;100.00;101081.94;5203611;28;20069;-52
2023/12/20 10:31:38;;;;;;;8.48;1.77;;;7.90;99.90;;;7.85;100.00;101083.69;5201577;28;20070;-51
2023/12/20 10:34:10;;;;;;;8.60;1.70;;;8.00;99.90;;;7.85;100.00;101088.91;5186852;28;20045;-50
2023/12/20 10:36:43;;;;;;;9.57;1.85;;;8.00;99.90;;;7.86;100.00;101082.88;5205135;28;20509;-50
2023/12/20 10:39:20;;;;;;;5.00;1.60;;;8.00;99.90;;;7.89;100.00;101069.19;5186819;28;20049;-51
2023/12/20 10:41:52;;;;;;;7.13;1.95;;;8.00;99.90;;;7.89;100.00;101070.06;5184879;28;20128;-51